Time;durP1;ratioP1;P1;durP2;ratioP2;P2;SDS_P1;SDS_P2;PMS_P1;PMS_P2;Temp;Humidity;BMP_temperature;BMP_pressure;BME280_temperature;BME280_humidity;BME280_pressure;Samples;Min_cycle;Max_cycle;Signal;HPM_P1;HPM_P2
2021/01/27 00:00:58;;;;;;;22.15;11.00;;;22.30;29.30;;;;;;6158980;28;82933;-67
2021/01/27 00:03:58;;;;;;;23.52;11.50;;;22.30;29.20;;;;;;6154941;28;84329;-67
2021/01/27 00:06:59;;;;;;;23.45;11.32;;;22.30;29.40;;;;;;6172575;28;83010;-67
2021/01/27 00:09:59;;;;;;;24.30;10.95;;;22.30;29.70;;;;;;6169737;28;83606;-68
2021/01/27 00:13:00;;;;;;;23.95;12.20;;;22.30;29.30;;;;;;6149110;27;88364;-67
2021/01/27 00:16:00;;;;;;;21.92;10.18;;;22.30;29.50;;;;;;6160914;28;83733;-68
2021/01/27 00:19:03;;;;;;;23.40;11.20;;;22.30;29.30;;;;;;6174765;27;86643;-67
2021/01/27 00:22:03;;;;;;;23.20;10.82;;;22.30;29.30;;;;;;6173678;28;83454;-67
2021/01/27 00:25:04;;;;;;;22.52;11.02;;;22.20;29.40;;;;;;6174370;27;83208;-66
2021/01/27 00:28:04;;;;;;;21.42;10.02;;;22.20;29.60;;;;;;6172762;28;84237;-67
2021/01/27 00:31:05;;;;;;;22.98;11.02;;;22.20;29.70;;;;;;6174291;28;86435;-67
2021/01/27 00:34:05;;;;;;;22.52;10.63;;;22.20;29.40;;;;;;6174389;27;83459;-65
2021/01/27 00:37:06;;;;;;;21.75;10.35;;;22.20;29.50;;;;;;6159077;28;83463;-65
2021/01/27 00:40:06;;;;;;;21.05;10.98;;;22.20;29.60;;;;;;6142799;28;82954;-65
2021/01/27 00:43:07;;;;;;;25.73;11.50;;;22.20;29.40;;;;;;6155832;28;87091;-68
2021/01/27 00:46:07;;;;;;;23.02;11.30;;;22.20;29.40;;;;;;6171874;28;83162;-68
2021/01/27 00:49:08;;;;;;;23.25;10.90;;;22.10;29.60;;;;;;6168829;28;83328;-68
2021/01/27 00:52:08;;;;;;;22.70;10.57;;;22.20;29.70;;;;;;6163799;28;83671;-67
2021/01/27 00:55:10;;;;;;;21.52;10.52;;;22.10;29.70;;;;;;6166649;28;85986;-67
2021/01/27 00:58:11;;;;;;;22.10;10.57;;;22.10;29.70;;;;;;6173402;28;83062;-67
2021/01/27 01:01:12;;;;;;;23.90;11.38;;;22.10;29.90;;;;;;6174562;27;83981;-68
2021/01/27 01:04:12;;;;;;;22.83;11.30;;;22.10;30.00;;;;;;6161276;27;86073;-67
2021/01/27 01:07:13;;;;;;;21.90;10.38;;;22.10;29.80;;;;;;6166876;28;83904;-67
2021/01/27 01:10:13;;;;;;;22.77;11.13;;;22.10;29.80;;;;;;6167682;28;83513;-66
2021/01/27 01:13:14;;;;;;;23.13;11.27;;;22.10;30.20;;;;;;6170898;27;82983;-67
2021/01/27 01:16:14;;;;;;;23.27;10.88;;;22.10;30.00;;;;;;6171572;28;83501;-67
2021/01/27 01:19:15;;;;;;;22.08;10.43;;;22.10;29.90;;;;;;6172796;27;83199;-67
2021/01/27 01:22:15;;;;;;;23.58;10.77;;;22.10;29.80;;;;;;6169670;28;83538;-68
2021/01/27 01:25:16;;;;;;;20.65;10.93;;;22.10;30.00;;;;;;6171070;27;83210;-68
2021/01/27 01:28:16;;;;;;;19.23;9.20;;;22.10;30.00;;;;;;6175923;28;83906;-67
2021/01/27 01:31:17;;;;;;;20.00;10.02;;;22.10;29.90;;;;;;6161197;28;83470;-68
2021/01/27 01:34:17;;;;;;;19.35;9.15;;;22.10;29.90;;;;;;6167858;28;83603;-68
2021/01/27 01:37:18;;;;;;;19.70;9.52;;;22.10;29.80;;;;;;6180093;27;82789;-68
2021/01/27 01:40:18;;;;;;;18.17;9.20;;;22.00;29.70;;;;;;6178950;28;80736;-68
2021/01/27 01:43:19;;;;;;;19.83;9.43;;;22.10;29.70;;;;;;6187509;27;80875;-68
2021/01/27 01:46:20;;;;;;;21.27;10.10;;;22.00;29.90;;;;;;6170123;28;83157;-68
2021/01/27 01:49:20;;;;;;;19.70;9.20;;;22.00;29.60;;;;;;6160537;27;83170;-68
2021/01/27 01:52:21;;;;;;;18.30;9.38;;;22.00;29.60;;;;;;6170826;28;82836;-66
2021/01/27 01:55:21;;;;;;;18.45;9.27;;;22.00;29.40;;;;;;6178798;27;81380;-67
2021/01/27 01:58:22;;;;;;;18.60;8.85;;;22.00;29.40;;;;;;6179314;28;80893;-67
2021/01/27 02:01:22;;;;;;;15.35;8.10;;;22.00;29.50;;;;;;6177190;27;80394;-68
2021/01/27 02:04:23;;;;;;;19.52;8.57;;;22.00;29.40;;;;;;6158116;27;81065;-68
2021/01/27 02:07:23;;;;;;;17.50;8.88;;;22.00;29.50;;;;;;6153515;28;81210;-68
2021/01/27 02:10:24;;;;;;;18.45;8.52;;;22.00;29.50;;;;;;6165043;28;81000;-68
2021/01/27 02:13:24;;;;;;;16.02;7.38;;;22.00;29.40;;;;;;6168565;27;82495;-68
2021/01/27 02:16:25;;;;;;;14.43;7.38;;;22.00;29.60;;;;;;6168003;28;80412;-67
2021/01/27 02:19:26;;;;;;;15.18;7.75;;;22.00;29.50;;;;;;6154781;28;81022;-68
2021/01/27 02:22:26;;;;;;;20.40;7.72;;;21.90;29.50;;;;;;6154852;28;82597;-67
2021/01/27 02:25:27;;;;;;;14.57;7.80;;;22.00;29.50;;;;;;6161552;28;81784;-67
2021/01/27 02:28:27;;;;;;;16.52;7.25;;;22.00;29.90;;;;;;6151954;28;80626;-68
2021/01/27 02:31:28;;;;;;;12.75;6.88;;;21.90;29.70;;;;;;6143176;28;81238;-68
2021/01/27 02:34:28;;;;;;;15.77;7.93;;;22.00;29.80;;;;;;6154430;28;81271;-67
2021/01/27 02:37:29;;;;;;;13.93;6.80;;;22.00;29.80;;;;;;6170430;28;81440;-67
2021/01/27 02:40:29;;;;;;;15.10;6.63;;;21.90;29.80;;;;;;6169637;27;81683;-67
2021/01/27 02:43:30;;;;;;;12.85;6.80;;;21.90;29.70;;;;;;6165434;28;80298;-68
2021/01/27 02:46:30;;;;;;;13.05;7.57;;;22.00;29.80;;;;;;6177116;28;81294;-68
2021/01/27 02:49:31;;;;;;;13.68;6.80;;;21.90;29.90;;;;;;6178379;27;80577;-68
2021/01/27 02:52:31;;;;;;;15.32;6.75;;;21.90;30.00;;;;;;6139632;28;82176;-68
2021/01/27 02:55:32;;;;;;;12.32;6.47;;;21.90;30.00;;;;;;6153333;28;83186;-67
2021/01/27 02:58:33;;;;;;;14.77;7.18;;;21.90;29.90;;;;;;6172622;28;80620;-68
2021/01/27 03:01:33;;;;;;;12.38;7.00;;;21.90;29.70;;;;;;6174237;28;80647;-68
2021/01/27 03:04:34;;;;;;;13.63;6.38;;;21.90;29.90;;;;;;6175425;27;80668;-68
2021/01/27 03:07:34;;;;;;;10.52;6.72;;;21.90;29.80;;;;;;6173119;27;80681;-68
2021/01/27 03:10:35;;;;;;;11.75;6.28;;;21.90;29.90;;;;;;6177089;27;80204;-68
2021/01/27 03:13:35;;;;;;;12.73;5.97;;;21.90;29.90;;;;;;6164282;28;80701;-68
2021/01/27 03:16:36;;;;;;;13.95;6.30;;;21.90;29.90;;;;;;6170709;28;80728;-68
2021/01/27 03:19:36;;;;;;;11.82;5.90;;;21.90;29.90;;;;;;6177261;27;80356;-68
2021/01/27 03:22:37;;;;;;;13.32;6.00;;;21.90;30.00;;;;;;6176655;27;81395;-68
2021/01/27 03:25:37;;;;;;;10.85;5.90;;;21.80;29.90;;;;;;6171026;28;80591;-68
2021/01/27 03:28:38;;;;;;;9.70;5.65;;;21.80;29.80;;;;;;6174941;27;80380;-69
2021/01/27 03:31:38;;;;;;;10.63;5.95;;;21.80;30.00;;;;;;6150562;27;80758;-68
2021/01/27 03:34:39;;;;;;;10.25;5.30;;;21.80;29.80;;;;;;6152768;28;81088;-69
2021/01/27 03:37:39;;;;;;;11.10;5.80;;;21.80;29.80;;;;;;6152928;28;80377;-68
2021/01/27 03:40:40;;;;;;;9.10;5.25;;;21.80;29.80;;;;;;6155151;28;81213;-68
2021/01/27 03:43:40;;;;;;;9.27;5.50;;;21.80;30.00;;;;;;6181818;28;81251;-68
2021/01/27 03:46:41;;;;;;;7.35;4.93;;;21.80;29.90;;;;;;6158289;28;80889;-68
2021/01/27 03:49:41;;;;;;;10.15;5.13;;;21.80;29.90;;;;;;6151840;28;80616;-69
2021/01/27 03:52:42;;;;;;;8.75;5.03;;;21.80;30.20;;;;;;6169635;28;84893;-70
2021/01/27 03:55:42;;;;;;;8.50;5.40;;;21.80;30.20;;;;;;6178694;28;80306;-68
2021/01/27 03:58:43;;;;;;;14.90;5.30;;;21.80;29.90;;;;;;6169088;28;80393;-68
2021/01/27 04:01:43;;;;;;;9.50;5.30;;;21.80;30.00;;;;;;6171257;28;81153;-69
2021/01/27 04:04:44;;;;;;;7.90;4.68;;;21.80;30.10;;;;;;6157957;28;80652;-68
2021/01/27 04:07:44;;;;;;;9.52;5.18;;;21.80;30.20;;;;;;6172459;28;80687;-68
2021/01/27 04:10:45;;;;;;;7.78;4.85;;;21.80;29.90;;;;;;6175077;28;80918;-68
2021/01/27 04:13:45;;;;;;;9.38;5.10;;;21.80;29.90;;;;;;6167471;28;80450;-68
2021/01/27 04:16:46;;;;;;;8.73;4.63;;;21.80;29.90;;;;;;6172890;28;80570;-68
2021/01/27 04:19:46;;;;;;;9.50;4.35;;;21.80;30.00;;;;;;6174516;28;81047;-69
2021/01/27 04:22:47;;;;;;;8.75;4.90;;;21.80;30.10;;;;;;6177229;27;86811;-69
2021/01/27 04:25:48;;;;;;;7.72;5.05;;;21.80;30.00;;;;;;6177052;28;80382;-68
2021/01/27 04:28:48;;;;;;;7.72;4.68;;;21.80;30.00;;;;;;6156933;27;80804;-69
2021/01/27 04:31:49;;;;;;;10.15;4.95;;;21.80;30.00;;;;;;6168035;28;80532;-68
2021/01/27 04:34:49;;;;;;;8.35;4.63;;;21.80;30.00;;;;;;6176045;28;80814;-69
2021/01/27 04:37:50;;;;;;;9.55;5.03;;;21.80;29.90;;;;;;6176540;28;81797;-69
2021/01/27 04:40:50;;;;;;;9.48;5.10;;;21.80;30.00;;;;;;6180898;28;81629;-68
2021/01/27 04:43:51;;;;;;;8.73;5.18;;;21.70;30.00;;;;;;6173983;28;81057;-69
2021/01/27 04:46:51;;;;;;;7.20;4.18;;;21.80;30.00;;;;;;6179066;27;80447;-67
2021/01/27 04:49:52;;;;;;;8.15;4.43;;;21.70;30.00;;;;;;6161162;27;80284;-68
2021/01/27 04:52:53;;;;;;;8.43;4.90;;;21.70;30.40;;;;;;6173914;28;83422;-68
2021/01/27 04:55:53;;;;;;;8.60;4.72;;;21.80;30.00;;;;;;6176345;27;80738;-68
2021/01/27 04:58:54;;;;;;;8.13;3.95;;;21.80;30.00;;;;;;6179934;27;80247;-68
2021/01/27 05:01:54;;;;;;;9.13;4.60;;;21.70;30.30;;;;;;6176563;27;81235;-68
2021/01/27 05:04:55;;;;;;;8.50;4.82;;;21.70;30.20;;;;;;6160753;28;81331;-68
2021/01/27 05:07:55;;;;;;;7.47;4.30;;;21.70;30.00;;;;;;6171925;28;80984;-68
2021/01/27 05:10:56;;;;;;;7.22;4.43;;;21.70;29.90;;;;;;6179848;27;80618;-67
2021/01/27 05:13:56;;;;;;;7.43;4.82;;;21.70;30.10;;;;;;6160254;28;80875;-71
2021/01/27 05:16:57;;;;;;;6.45;3.67;;;21.70;30.30;;;;;;6155504;28;83543;-72
2021/01/27 05:19:57;;;;;;;7.07;4.05;;;21.80;31.30;;;;;;6155834;28;80331;-70
2021/01/27 05:22:58;;;;;;;6.63;3.75;;;21.80;31.70;;;;;;6177802;28;80983;-71
2021/01/27 05:25:58;;;;;;;10.60;4.20;;;21.80;31.30;;;;;;6153214;28;80593;-74
2021/01/27 05:28:59;;;;;;;7.40;3.58;;;21.80;31.00;;;;;;6175996;28;84079;-72
2021/01/27 05:32:00;;;;;;;5.90;3.67;;;21.80;33.30;;;;;;6179347;28;80852;-73
2021/01/27 05:35:03;;;;;;;7.35;3.47;;;21.90;35.10;;;;;;6157527;27;80874;-71
2021/01/27 05:38:03;;;;;;;8.95;3.30;;;21.90;35.30;;;;;;6162299;28;84255;-68
2021/01/27 05:41:04;;;;;;;6.63;3.47;;;22.00;35.50;;;;;;6175920;28;81775;-68
2021/01/27 05:44:04;;;;;;;6.88;3.85;;;22.10;35.10;;;;;;6180933;28;81160;-69
2021/01/27 05:47:05;;;;;;;9.18;4.28;;;22.20;34.30;;;;;;6156021;28;80344;-70
2021/01/27 05:50:05;;;;;;;9.63;3.88;;;22.20;33.70;;;;;;6170531;28;80448;-69
2021/01/27 05:53:06;;;;;;;7.10;3.72;;;22.20;33.50;;;;;;6175939;28;80470;-69
2021/01/27 05:56:06;;;;;;;11.48;4.63;;;22.30;33.20;;;;;;6145571;27;80518;-68
2021/01/27 05:59:07;;;;;;;7.38;4.13;;;22.30;33.20;;;;;;6159029;27;80968;-71
2021/01/27 06:02:07;;;;;;;7.20;4.03;;;22.30;33.10;;;;;;6131690;28;80942;-75
2021/01/27 06:05:08;;;;;;;7.32;3.95;;;22.40;32.80;;;;;;6173690;28;81356;-72
2021/01/27 06:08:09;;;;;;;5.93;3.67;;;22.40;32.70;;;;;;6178647;28;80689;-65
2021/01/27 06:11:09;;;;;;;8.70;4.15;;;22.40;33.30;;;;;;6159935;28;80880;-66
2021/01/27 06:14:10;;;;;;;5.80;3.67;;;22.50;33.10;;;;;;6175317;28;81081;-67
2021/01/27 06:17:10;;;;;;;7.30;3.47;;;22.50;33.40;;;;;;6181612;27;81182;-65
2021/01/27 06:20:11;;;;;;;5.90;3.72;;;22.50;33.40;;;;;;6183049;28;81109;-66
2021/01/27 06:23:11;;;;;;;6.72;3.55;;;22.50;33.40;;;;;;6143875;27;80955;-64
2021/01/27 06:26:12;;;;;;;8.50;3.85;;;22.50;33.30;;;;;;6173633;28;81289;-66
2021/01/27 06:29:12;;;;;;;6.68;4.47;;;22.60;33.50;;;;;;6163792;27;82916;-69
2021/01/27 06:32:13;;;;;;;6.80;3.53;;;22.60;33.20;;;;;;6172065;28;80568;-68
2021/01/27 06:35:13;;;;;;;7.22;3.78;;;22.60;32.80;;;;;;6181808;28;81628;-68
2021/01/27 06:38:14;;;;;;;8.32;3.90;;;22.60;32.20;;;;;;6142937;28;80187;-68
2021/01/27 06:41:14;;;;;;;6.90;4.05;;;22.70;32.20;;;;;;6183281;27;81194;-68
2021/01/27 06:44:15;;;;;;;6.10;3.90;;;22.70;32.20;;;;;;6179720;27;81132;-67
2021/01/27 06:47:16;;;;;;;7.50;3.67;;;22.70;31.90;;;;;;6181314;27;80815;-69
2021/01/27 06:50:16;;;;;;;7.05;4.20;;;22.70;31.50;;;;;;6153537;28;81144;-68
2021/01/27 06:53:17;;;;;;;6.35;3.88;;;22.70;31.60;;;;;;6141823;28;84633;-66
2021/01/27 06:56:17;;;;;;;9.05;4.22;;;22.70;31.50;;;;;;6180667;27;80521;-68
2021/01/27 06:59:18;;;;;;;8.63;4.30;;;22.70;31.70;;;;;;6179370;28;80446;-69
2021/01/27 07:02:18;;;;;;;10.48;4.57;;;22.80;31.70;;;;;;6169501;27;80600;-70
2021/01/27 07:05:19;;;;;;;9.77;4.50;;;22.80;31.20;;;;;;6148434;28;81426;-67
2021/01/27 07:08:19;;;;;;;8.73;4.25;;;22.80;30.80;;;;;;6149760;28;80485;-66
2021/01/27 07:11:20;;;;;;;9.63;5.10;;;22.80;30.20;;;;;;6156850;28;80938;-68
2021/01/27 07:14:20;;;;;;;8.65;4.60;;;22.80;30.30;;;;;;6153357;28;80437;-68
2021/01/27 07:17:21;;;;;;;8.10;4.65;;;22.80;30.60;;;;;;6148697;28;81512;-71
2021/01/27 07:20:21;;;;;;;9.52;5.28;;;22.90;30.50;;;;;;6180204;28;81352;-74
2021/01/27 07:23:22;;;;;;;8.80;5.25;;;23.00;30.60;;;;;;6137951;27;80851;-69
2021/01/27 07:26:22;;;;;;;9.45;5.57;;;22.90;30.10;;;;;;6182121;28;81095;-68
2021/01/27 07:29:25;;;;;;;10.07;5.40;;;22.90;30.60;;;;;;6156019;28;81124;-66
2021/01/27 07:32:26;;;;;;;8.43;5.03;;;22.90;31.00;;;;;;6148661;28;86200;-66
2021/01/27 07:35:27;;;;;;;9.45;5.10;;;22.90;31.60;;;;;;6155376;28;81396;-67
2021/01/27 07:38:27;;;;;;;12.73;5.35;;;22.90;31.70;;;;;;6152487;28;80616;-68
2021/01/27 07:41:28;;;;;;;10.55;6.05;;;22.90;31.80;;;;;;6156321;28;81204;-69
2021/01/27 07:44:28;;;;;;;12.02;6.22;;;22.90;31.30;;;;;;6171671;27;81885;-67
2021/01/27 07:47:29;;;;;;;13.00;6.18;;;22.90;31.00;;;;;;6176540;28;80952;-67
2021/01/27 07:50:30;;;;;;;12.82;5.90;;;22.90;31.80;;;;;;6169791;27;81323;-67
2021/01/27 07:53:31;;;;;;;13.18;6.13;;;22.90;31.20;;;;;;6179439;27;81333;-67
2021/01/27 07:56:31;;;;;;;10.65;5.95;;;22.90;31.40;;;;;;6154149;28;80655;-67
2021/01/27 07:59:32;;;;;;;13.30;5.70;;;23.00;31.20;;;;;;6153098;28;80779;-67
2021/01/27 08:02:33;;;;;;;13.98;5.75;;;23.00;31.60;;;;;;6162046;28;81163;-67
2021/01/27 08:05:33;;;;;;;16.52;7.15;;;23.00;32.20;;;;;;6152941;28;82223;-68
2021/01/27 08:08:34;;;;;;;12.48;5.88;;;22.90;31.50;;;;;;6153107;28;80524;-65
2021/01/27 08:11:34;;;;;;;10.82;5.47;;;23.00;31.10;;;;;;6153736;28;80666;-65
2021/01/27 08:14:35;;;;;;;11.95;6.03;;;23.00;31.40;;;;;;6148687;28;83144;-64
2021/01/27 08:17:35;;;;;;;11.98;6.47;;;23.00;31.00;;;;;;6177127;28;80835;-67
2021/01/27 08:20:36;;;;;;;12.75;6.68;;;22.90;30.60;;;;;;6180663;28;80950;-65
2021/01/27 08:23:37;;;;;;;13.00;6.80;;;22.90;30.70;;;;;;6147716;28;80684;-67
2021/01/27 08:26:37;;;;;;;13.10;6.72;;;22.90;30.60;;;;;;6152521;28;83409;-66
2021/01/27 08:29:38;;;;;;;11.70;7.10;;;22.90;30.50;;;;;;6172333;27;80137;-66
2021/01/27 08:32:43;;;;;;;11.77;6.80;;;22.90;30.80;;;;;;6175071;27;80815;-67
2021/01/27 08:35:43;;;;;;;12.25;6.68;;;22.90;31.40;;;;;;6144314;28;80745;-67
2021/01/27 08:38:44;;;;;;;12.05;6.68;;;22.80;31.10;;;;;;6178655;27;80871;-64
2021/01/27 08:41:44;;;;;;;11.65;5.97;;;22.90;30.70;;;;;;6168590;28;81090;-68
2021/01/27 08:44:45;;;;;;;13.13;7.40;;;22.80;30.90;;;;;;6185788;28;82018;-68
2021/01/27 08:47:45;;;;;;;11.90;7.72;;;22.90;31.20;;;;;;6176125;28;80698;-67
2021/01/27 08:50:46;;;;;;;16.13;7.28;;;22.90;31.00;;;;;;6181166;28;81294;-67
2021/01/27 08:53:47;;;;;;;11.63;6.35;;;22.90;31.10;;;;;;6151716;28;81337;-67
2021/01/27 08:56:47;;;;;;;15.77;7.05;;;22.90;31.80;;;;;;6159406;28;80456;-66
2021/01/27 08:59:48;;;;;;;12.38;7.30;;;22.90;31.00;;;;;;6179120;28;82589;-67
2021/01/27 09:02:48;;;;;;;12.43;7.07;;;22.90;30.90;;;;;;6176836;27;80347;-68
2021/01/27 09:05:49;;;;;;;13.85;7.28;;;22.90;30.90;;;;;;6159714;28;80957;-68
2021/01/27 09:08:49;;;;;;;16.33;7.57;;;22.90;30.90;;;;;;6187565;28;80535;-68
2021/01/27 09:11:50;;;;;;;13.85;7.93;;;22.90;30.80;;;;;;6180031;27;84698;-67
2021/01/27 09:14:50;;;;;;;17.95;8.02;;;22.90;30.80;;;;;;6179039;27;80776;-66
2021/01/27 09:17:51;;;;;;;19.70;7.97;;;22.80;30.70;;;;;;6181339;28;81246;-68
2021/01/27 09:20:51;;;;;;;14.32;7.90;;;22.90;30.60;;;;;;6174424;28;80804;-69
2021/01/27 09:23:52;;;;;;;15.23;7.97;;;22.90;30.60;;;;;;6179462;28;81040;-69
2021/01/27 09:26:53;;;;;;;15.13;8.52;;;22.90;30.50;;;;;;6154550;28;80752;-69
2021/01/27 09:29:54;;;;;;;14.85;8.32;;;22.90;30.50;;;;;;6154398;28;81209;-68
2021/01/27 09:32:54;;;;;;;14.30;8.10;;;22.90;30.60;;;;;;6181475;27;80380;-68
2021/01/27 09:35:55;;;;;;;13.32;7.85;;;22.90;31.10;;;;;;6178799;28;82589;-70
2021/01/27 09:38:55;;;;;;;13.98;8.00;;;22.90;31.50;;;;;;6174773;28;80566;-69
2021/01/27 09:41:56;;;;;;;16.27;8.60;;;23.00;32.00;;;;;;6176794;27;80593;-69
2021/01/27 09:44:56;;;;;;;14.52;8.68;;;23.00;32.40;;;;;;6182819;27;80491;-68
2021/01/27 09:47:57;;;;;;;17.83;8.57;;;23.00;32.10;;;;;;6159004;28;81146;-68
2021/01/27 09:50:58;;;;;;;17.05;8.45;;;22.90;31.80;;;;;;6177803;27;80790;-65
2021/01/27 09:53:59;;;;;;;15.38;7.72;;;22.90;31.60;;;;;;6183606;28;81439;-66
2021/01/27 09:56:59;;;;;;;13.00;7.32;;;22.90;31.70;;;;;;6177314;28;81729;-67
2021/01/27 10:00:00;;;;;;;12.35;6.68;;;23.00;31.70;;;;;;6191832;28;80709;-64
2021/01/27 10:03:01;;;;;;;12.35;7.22;;;23.10;31.30;;;;;;6169778;28;80918;-65
2021/01/27 10:06:01;;;;;;;13.23;7.90;;;23.10;30.90;;;;;;6157226;28;80832;-66
2021/01/27 10:09:02;;;;;;;10.77;6.20;;;23.10;30.20;;;;;;6157035;27;80686;-65
2021/01/27 10:12:02;;;;;;;18.17;6.22;;;23.20;30.50;;;;;;6182447;28;83320;-65
2021/01/27 10:15:03;;;;;;;14.93;6.60;;;23.20;30.00;;;;;;6181777;28;81068;-66
2021/01/27 10:18:03;;;;;;;11.45;6.22;;;23.30;29.80;;;;;;6174324;27;81414;-70
2021/01/27 10:21:04;;;;;;;12.13;6.40;;;23.30;29.40;;;;;;6182548;27;80827;-66
2021/01/27 10:24:04;;;;;;;11.45;6.10;;;23.30;29.50;;;;;;6175380;28;80416;-66
2021/01/27 10:27:05;;;;;;;10.02;5.65;;;23.30;30.00;;;;;;6159970;28;82542;-68
2021/01/27 10:30:05;;;;;;;10.63;5.20;;;23.30;29.30;;;;;;6179817;28;80384;-65
2021/01/27 10:33:06;;;;;;;8.68;4.38;;;23.30;29.10;;;;;;6180547;27;80939;-66
2021/01/27 10:36:06;;;;;;;8.52;4.93;;;23.40;29.40;;;;;;6188087;27;81720;-66
2021/01/27 10:39:07;;;;;;;9.57;5.22;;;23.40;29.20;;;;;;6178801;28;83094;-65
2021/01/27 10:42:07;;;;;;;7.90;4.63;;;23.40;28.80;;;;;;6180906;27;80467;-67
2021/01/27 10:45:08;;;;;;;8.77;4.75;;;23.40;28.90;;;;;;6162091;28;81270;-67
2021/01/27 10:48:09;;;;;;;6.47;4.03;;;23.30;28.90;;;;;;6172841;27;82351;-67
2021/01/27 10:51:09;;;;;;;9.13;4.20;;;23.40;28.90;;;;;;6162035;28;80957;-66
2021/01/27 10:54:10;;;;;;;8.02;4.18;;;23.30;28.90;;;;;;6156833;28;83182;-67
2021/01/27 10:57:10;;;;;;;8.40;4.72;;;23.40;29.30;;;;;;6174549;28;81138;-68
2021/01/27 11:00:11;;;;;;;9.00;4.85;;;23.30;30.00;;;;;;6160113;28;81104;-68
2021/01/27 11:03:12;;;;;;;9.27;4.90;;;23.30;30.30;;;;;;6176628;28;83675;-68
2021/01/27 11:06:13;;;;;;;7.95;4.68;;;23.30;30.40;;;;;;6164358;28;81395;-67
2021/01/27 11:09:14;;;;;;;7.90;4.70;;;23.30;30.50;;;;;;6152887;28;80420;-66
2021/01/27 11:12:14;;;;;;;11.45;5.82;;;23.30;31.10;;;;;;6175461;28;82069;-71
2021/01/27 11:15:15;;;;;;;9.93;5.53;;;23.30;31.30;;;;;;6170987;27;80500;-66
2021/01/27 11:18:15;;;;;;;9.23;5.07;;;23.30;31.60;;;;;;6154907;28;81329;-67
2021/01/27 11:21:16;;;;;;;8.77;5.10;;;23.30;32.00;;;;;;6182718;27;80582;-67
2021/01/27 11:24:16;;;;;;;8.88;4.80;;;23.20;31.80;;;;;;6170249;28;80533;-66
2021/01/27 11:27:17;;;;;;;11.20;4.82;;;23.30;31.40;;;;;;6177425;28;80409;-66
2021/01/27 11:30:17;;;;;;;8.82;5.25;;;23.30;31.50;;;;;;6182592;28;81182;-65
2021/01/27 11:33:18;;;;;;;10.02;5.65;;;23.30;31.20;;;;;;6171704;28;80600;-66
2021/01/27 11:36:19;;;;;;;11.13;5.60;;;23.20;30.70;;;;;;6178819;28;80496;-65
2021/01/27 11:39:20;;;;;;;8.68;4.93;;;22.90;30.40;;;;;;6155454;27;84026;-69
2021/01/27 11:42:20;;;;;;;10.93;5.57;;;23.20;30.70;;;;;;6170080;27;80851;-68
2021/01/27 11:45:21;;;;;;;10.23;5.70;;;23.20;30.40;;;;;;6153125;28;80511;-71
2021/01/27 11:48:21;;;;;;;11.45;5.45;;;23.10;30.40;;;;;;6162043;28;80989;-66
2021/01/27 11:51:22;;;;;;;11.82;5.57;;;23.10;31.30;;;;;;6185494;28;80695;-66
2021/01/27 11:54:23;;;;;;;10.38;5.15;;;23.10;32.20;;;;;;6163287;27;80592;-69
2021/01/27 11:57:23;;;;;;;10.73;5.53;;;23.00;32.30;;;;;;6175415;28;81407;-67
2021/01/27 12:00:24;;;;;;;11.15;5.05;;;23.00;32.40;;;;;;6155580;27;80159;-68
2021/01/27 12:03:24;;;;;;;13.60;5.30;;;23.00;32.40;;;;;;6176282;28;80925;-67
2021/01/27 12:06:25;;;;;;;9.43;4.63;;;22.90;32.40;;;;;;6186470;27;80679;-67
2021/01/27 12:09:28;;;;;;;9.55;4.70;;;22.90;32.80;;;;;;6180171;28;80722;-66
2021/01/27 12:12:28;;;;;;;7.05;4.70;;;22.90;33.00;;;;;;6174857;27;81752;-63
2021/01/27 12:15:29;;;;;;;10.70;4.82;;;22.90;33.20;;;;;;6178325;28;80798;-66
2021/01/27 12:18:30;;;;;;;8.35;4.78;;;22.90;33.60;;;;;;6177860;28;80657;-65
2021/01/27 12:21:30;;;;;;;30.08;15.82;;;22.90;33.20;;;;;;6172544;27;81060;-67
2021/01/27 12:24:31;;;;;;;26.35;14.32;;;22.90;33.50;;;;;;6182592;28;83211;-67
2021/01/27 12:27:31;;;;;;;24.85;13.23;;;22.80;33.70;;;;;;6176418;27;83833;-67
2021/01/27 12:30:32;;;;;;;21.23;14.75;;;22.80;33.70;;;;;;6166951;28;83735;-66
2021/01/27 12:33:33;;;;;;;29.10;16.30;;;22.80;33.70;;;;;;6153420;28;83672;-67
2021/01/27 12:36:33;;;;;;;49.38;28.27;;;22.80;33.80;;;;;;6156455;28;85571;-67
2021/01/27 12:39:34;;;;;;;35.47;22.10;;;22.70;33.90;;;;;;6164747;28;84252;-67
2021/01/27 12:42:34;;;;;;;34.97;20.67;;;22.70;34.00;;;;;;6173457;28;83542;-67
2021/01/27 12:45:35;;;;;;;35.00;20.27;;;22.70;34.10;;;;;;6172812;27;82984;-67
2021/01/27 12:48:35;;;;;;;30.55;15.85;;;22.70;33.90;;;;;;6172700;27;83563;-67
2021/01/27 12:51:36;;;;;;;24.17;13.05;;;22.70;33.50;;;;;;6154006;27;83094;-67
2021/01/27 12:54:36;;;;;;;21.33;11.88;;;22.70;34.20;;;;;;6136395;28;83242;-67
2021/01/27 12:57:37;;;;;;;16.30;8.82;;;22.60;33.70;;;;;;6163080;28;83441;-67
2021/01/27 13:00:37;;;;;;;15.95;9.35;;;22.60;33.90;;;;;;6174899;28;82838;-68
2021/01/27 13:03:38;;;;;;;14.95;7.60;;;22.60;34.40;;;;;;6176444;28;80676;-69
2021/01/27 13:06:38;;;;;;;12.73;6.90;;;22.60;34.10;;;;;;6158342;28;81595;-67
2021/01/27 13:09:39;;;;;;;13.35;7.10;;;22.60;34.10;;;;;;6156295;28;81138;-68
2021/01/27 13:12:40;;;;;;;10.63;5.95;;;22.50;34.10;;;;;;6153082;28;81110;-68
2021/01/27 13:15:40;;;;;;;12.23;6.32;;;22.50;34.40;;;;;;6162807;28;80780;-67
2021/01/27 13:18:41;;;;;;;11.02;5.68;;;22.50;34.50;;;;;;6156925;28;80573;-67
2021/01/27 13:21:41;;;;;;;9.48;5.50;;;22.50;34.40;;;;;;6168035;28;80752;-67
2021/01/27 13:24:42;;;;;;;10.63;5.38;;;22.40;34.00;;;;;;6169558;28;83106;-67
2021/01/27 13:27:42;;;;;;;9.52;5.30;;;22.40;34.30;;;;;;6137437;28;81334;-67
2021/01/27 13:30:43;;;;;;;8.10;4.88;;;22.40;34.30;;;;;;6170208;28;80783;-68
2021/01/27 13:33:44;;;;;;;8.82;4.72;;;22.40;34.50;;;;;;6180863;28;81656;-67
2021/01/27 13:36:44;;;;;;;9.15;4.68;;;22.40;34.40;;;;;;6171003;28;81493;-67
2021/01/27 13:39:45;;;;;;;9.63;5.15;;;22.40;34.40;;;;;;6167198;28;81680;-70
2021/01/27 13:42:45;;;;;;;8.88;4.40;;;22.50;34.50;;;;;;6175239;28;81242;-65
2021/01/27 13:45:46;;;;;;;10.35;5.15;;;22.50;34.10;;;;;;6160705;28;81405;-65
2021/01/27 13:48:46;;;;;;;8.27;5.25;;;22.50;34.10;;;;;;6162802;28;80835;-65
2021/01/27 13:51:47;;;;;;;9.70;4.97;;;22.50;34.20;;;;;;6156384;28;81169;-67
2021/01/27 13:54:47;;;;;;;7.57;4.95;;;22.50;34.00;;;;;;6180841;28;80691;-67
2021/01/27 13:57:49;;;;;;;7.60;4.30;;;22.60;34.10;;;;;;6170857;27;81614;-67
2021/01/27 14:00:49;;;;;;;7.22;4.50;;;22.50;34.00;;;;;;6182486;27;81418;-67
2021/01/27 14:03:50;;;;;;;8.88;4.70;;;22.60;34.10;;;;;;6170617;28;80815;-65
2021/01/27 14:06:53;;;;;;;8.10;3.92;;;22.60;34.10;;;;;;6155002;28;83302;-65
2021/01/27 14:09:54;;;;;;;8.40;4.78;;;22.60;34.00;;;;;;6148911;28;80713;-65
2021/01/27 14:12:55;;;;;;;8.35;4.57;;;22.60;34.00;;;;;;6153252;28;81501;-65
2021/01/27 14:15:55;;;;;;;8.10;4.80;;;22.60;34.00;;;;;;6169212;28;86946;-66
2021/01/27 14:18:56;;;;;;;8.70;4.60;;;22.60;34.20;;;;;;6180362;28;80447;-66
2021/01/27 14:21:57;;;;;;;8.30;3.85;;;22.60;34.20;;;;;;6180361;27;81231;-66
2021/01/27 14:24:57;;;;;;;8.55;4.05;;;22.60;34.20;;;;;;6180889;28;81863;-64
2021/01/27 14:27:59;;;;;;;8.30;4.38;;;22.70;34.90;;;;;;6181197;28;82569;-67
2021/01/27 14:30:59;;;;;;;10.05;4.50;;;22.70;34.30;;;;;;6168366;28;80714;-67
2021/01/27 14:34:00;;;;;;;8.27;4.70;;;22.70;34.60;;;;;;6184401;27;80800;-67
2021/01/27 14:37:01;;;;;;;12.25;5.47;;;22.70;34.50;;;;;;6147369;27;84939;-67
2021/01/27 14:40:01;;;;;;;12.88;5.47;;;22.70;34.90;;;;;;6162232;28;80601;-63
2021/01/27 14:43:02;;;;;;;10.75;5.05;;;22.70;34.90;;;;;;6168406;28;83425;-65
2021/01/27 14:46:02;;;;;;;12.93;6.00;;;22.70;35.00;;;;;;6164648;28;80693;-66
2021/01/27 14:49:03;;;;;;;14.43;5.80;;;22.70;35.20;;;;;;6171152;27;81227;-66
2021/01/27 14:52:03;;;;;;;9.25;5.30;;;22.70;35.10;;;;;;6176386;28;81646;-68
2021/01/27 14:55:04;;;;;;;11.23;5.47;;;22.70;35.30;;;;;;6174195;27;83168;-68
2021/01/27 14:58:04;;;;;;;11.40;5.78;;;22.70;35.50;;;;;;6177504;28;80506;-68
2021/01/27 15:01:05;;;;;;;12.20;6.57;;;22.70;35.80;;;;;;6179295;28;81346;-70
2021/01/27 15:04:06;;;;;;;13.43;7.68;;;22.60;35.90;;;;;;6177654;28;81045;-68
2021/01/27 15:07:06;;;;;;;15.23;7.80;;;22.70;36.00;;;;;;6185094;27;80836;-67
2021/01/27 15:10:07;;;;;;;12.48;7.00;;;22.70;35.90;;;;;;6169510;28;80393;-69
2021/01/27 15:13:07;;;;;;;14.23;7.75;;;22.70;36.30;;;;;;6153980;28;80340;-69
2021/01/27 15:16:08;;;;;;;12.10;7.20;;;22.60;37.10;;;;;;6155255;28;81945;-69
2021/01/27 15:19:08;;;;;;;13.45;7.85;;;22.60;36.50;;;;;;6183366;28;83669;-68
2021/01/27 15:22:09;;;;;;;19.80;8.75;;;22.60;36.80;;;;;;6168642;28;80583;-69
2021/01/27 15:25:09;;;;;;;14.88;8.80;;;22.60;37.00;;;;;;6171886;28;80606;-69
2021/01/27 15:28:10;;;;;;;15.05;8.95;;;22.60;37.00;;;;;;6172574;28;81099;-69